»·PEaware :: SWA2572 KPHX-KBUR

SWA2572 :: KPHX-KBUR

FLIGHT INFORMATION

Flight Status: Arrived
Operator:
Southwest Airlines
More flights by this operator :: More flights under this callsign
Pilot: Daniel W. (24238)
Aircraft: BOEING 737-700
(B737)
More flights by this aircraft type
Origin: KPHX Phoenix Sky Harbor Intl
United States
Destination: KBUR Bob Hope-Burbank
United States
More flights between these airports :: More routes between these airports
Route: +ZEPER2 RRSTA EED JANNY5
File this flight plan on PilotEdge
Remarks: PBN / A1D1O1S2T1 NAV / RNVD1E1A1 RNP10 DOF / 201117 REG / N293WN EET / KZLA0025 CODE / A302A0 PER / C
Altitude:
(Current/Filed)
34,000ft
Speed:
(Current/Filed)
398kts
Departed: 17-Nov-20 12:14 PM
Arrived: 17-Nov-20 01:23 PM
Distance/Time
Traveled:
319nm/1:08
Distance/Time
To Go:
Arrived

Flight Plot

Page will automatically refresh every two minutes.

Flight plan parsing failed; only flown route is shown


Map Options




Map Legend


Flown Route
Filed Route
Departure Airport
Arrival Airport
Navaid (VOR, NDB)
Fix

Horizontal Profiles

Position Reports

Time Latitude Longitude Heading Altitude Ground
Speed
17-Nov-20 11:11 33.433748 -111.998708 329 1143ft 0kts
17-Nov-20 11:12 33.433748 -111.998708 329 1143ft 0kts
17-Nov-20 11:13 33.433748 -111.998708 329 1143ft 0kts
17-Nov-20 11:14 33.433748 -111.998708 329 1143ft 0kts
17-Nov-20 11:15 33.433748 -111.998708 329 1143ft 0kts
17-Nov-20 11:16 33.433748 -111.998708 329 1143ft 0kts
17-Nov-20 11:17 33.433748 -111.998708 329 1143ft 0kts
17-Nov-20 11:18 33.433748 -111.998708 329 1143ft 0kts
17-Nov-20 11:19 33.433748 -111.998708 329 1143ft 0kts
17-Nov-20 11:20 33.433748 -111.998708 329 1143ft 0kts
17-Nov-20 11:21 33.433748 -111.998708 329 1143ft 0kts
17-Nov-20 11:22 33.433748 -111.998708 329 1143ft 0kts
17-Nov-20 11:23 33.433748 -111.998708 329 1143ft 0kts
17-Nov-20 11:24 33.433748 -111.998708 329 1143ft 0kts
17-Nov-20 11:25 33.433748 -111.998708 329 1143ft 0kts
17-Nov-20 11:26 33.433748 -111.998708 329 1143ft 0kts
17-Nov-20 11:27 33.433748 -111.998708 329 1143ft 0kts
17-Nov-20 11:28 33.433748 -111.998708 329 1143ft 0kts
17-Nov-20 11:29 33.433748 -111.998708 329 1143ft 0kts
17-Nov-20 11:30 33.433748 -111.998708 329 1143ft 0kts
17-Nov-20 11:31 33.433748 -111.998708 329 1143ft 0kts
17-Nov-20 11:32 33.433748 -111.998708 329 1143ft 0kts
17-Nov-20 11:33 33.433748 -111.998708 329 1143ft 0kts
17-Nov-20 11:34 33.433748 -111.998708 329 1143ft 0kts
17-Nov-20 11:35 33.433748 -111.998708 329 1143ft 0kts
17-Nov-20 11:36 33.433748 -111.998708 329 1143ft 0kts
17-Nov-20 11:37 33.433748 -111.998708 329 1143ft 0kts
17-Nov-20 11:38 33.433748 -111.998708 329 1143ft 0kts
17-Nov-20 11:39 33.433748 -111.998708 329 1143ft 0kts
17-Nov-20 11:40 33.433748 -111.998708 329 1143ft 0kts
17-Nov-20 11:41 33.433748 -111.998708 329 1143ft 0kts
17-Nov-20 11:42 33.433748 -111.998708 329 1143ft 0kts
17-Nov-20 11:43 33.433748 -111.998708 329 1143ft 0kts
17-Nov-20 11:44 33.433748 -111.998708 329 1143ft 0kts
17-Nov-20 11:45 33.433748 -111.998708 329 1143ft 0kts
17-Nov-20 11:46 33.433748 -111.998708 329 1143ft 0kts
17-Nov-20 11:47 33.433748 -111.998708 329 1143ft 0kts
17-Nov-20 11:48 33.433748 -111.998708 329 1143ft 0kts
17-Nov-20 11:49 33.433748 -111.998708 329 1143ft 0kts
17-Nov-20 11:50 33.433748 -111.998708 329 1143ft 0kts
17-Nov-20 11:51 33.433748 -111.998708 329 1143ft 0kts
17-Nov-20 11:52 33.433748 -111.998708 329 1143ft 0kts
17-Nov-20 11:53 33.433748 -111.998708 329 1143ft 0kts
17-Nov-20 11:55 33.433748 -111.998708 329 1143ft 0kts
17-Nov-20 11:56 33.433748 -111.998708 329 1143ft 0kts
17-Nov-20 11:57 33.433748 -111.998708 329 1143ft 0kts
17-Nov-20 11:58 33.433748 -111.998708 329 1143ft 0kts
17-Nov-20 11:59 33.433748 -111.998708 329 1143ft 0kts
17-Nov-20 12:00 33.433748 -111.998708 329 1143ft 0kts
17-Nov-20 12:01 33.433748 -111.998708 329 1143ft 0kts
17-Nov-20 12:02 33.433748 -111.998708 329 1143ft 0kts
17-Nov-20 12:03 33.433748 -111.998708 329 1143ft 0kts
17-Nov-20 12:04 33.433748 -111.998708 329 1143ft 0kts
17-Nov-20 12:05 33.433556 -111.998098 233 1143ft 2kts
17-Nov-20 12:06 33.433957 -111.997781 180 1143ft 0kts
17-Nov-20 12:07 33.433957 -111.997781 180 1143ft 0kts
17-Nov-20 12:08 33.433957 -111.997781 180 1143ft 0kts
17-Nov-20 12:09 33.432840 -111.999384 270 1143ft 22kts
17-Nov-20 12:10 33.432841 -112.007931 269 1143ft 25kts
17-Nov-20 12:11 33.432832 -112.017088 270 1143ft 26kts
17-Nov-20 12:12 33.432839 -112.025292 269 1143ft 22kts
17-Nov-20 12:12 33.431865 -112.026961 180 1143ft 6kts
17-Nov-20 12:14 33.430988 -112.004169 89 1338ft 156kts
17-Nov-20 12:14 33.432993 -111.952042 85 3016ft 219kts
17-Nov-20 12:16 33.446452 -111.855737 50 6732ft 278kts
17-Nov-20 12:16 33.511315 -111.839942 0 10087ft 303kts
17-Nov-20 12:18 33.622040 -111.837676 0 13786ft 379kts
17-Nov-20 12:18 33.711060 -111.848090 337 17089ft 393kts
17-Nov-20 12:19 33.787705 -111.936968 301 20981ft 392kts
17-Nov-20 12:20 33.853068 -112.046006 303 24246ft 410kts
17-Nov-20 12:21 33.921323 -112.158280 303 27062ft 421kts
17-Nov-20 12:22 33.991096 -112.273849 303 29378ft 432kts
17-Nov-20 12:23 34.073531 -112.380524 316 31875ft 434kts
17-Nov-20 12:24 34.165636 -112.473283 316 34086ft 432kts
17-Nov-20 12:25 34.257922 -112.566556 316 34236ft 429kts
17-Nov-20 12:26 34.349804 -112.658877 316 34260ft 429kts
17-Nov-20 12:27 34.441291 -112.751706 316 34282ft 429kts
17-Nov-20 12:28 34.532762 -112.844995 315 34285ft 430kts
17-Nov-20 12:29 34.624362 -112.938332 315 34277ft 429kts
17-Nov-20 12:30 34.715580 -113.031875 315 34293ft 429kts
17-Nov-20 12:31 34.787896 -113.141137 280 34294ft 416kts
17-Nov-20 12:32 34.795130 -113.280137 268 34272ft 412kts
17-Nov-20 12:33 34.793024 -113.419491 267 34251ft 412kts
17-Nov-20 12:34 34.790246 -113.558964 267 34233ft 412kts
17-Nov-20 12:35 34.788295 -113.698480 268 34217ft 412kts
17-Nov-20 12:36 34.785802 -113.837748 267 34202ft 412kts
17-Nov-20 12:37 34.782660 -113.976952 267 34180ft 412kts
17-Nov-20 12:38 34.779470 -114.116590 268 34155ft 412kts
17-Nov-20 12:39 34.775306 -114.256036 267 34140ft 412kts
17-Nov-20 12:40 34.769733 -114.395242 266 34131ft 412kts
17-Nov-20 12:41 34.766946 -114.534790 271 34130ft 412kts
17-Nov-20 12:42 34.770809 -114.673999 271 34129ft 413kts
17-Nov-20 12:43 34.773651 -114.813781 270 34130ft 413kts
17-Nov-20 12:44 34.776315 -114.953594 270 34132ft 413kts
17-Nov-20 12:45 34.778870 -115.093023 271 34136ft 413kts
17-Nov-20 12:46 34.781203 -115.232726 271 34136ft 413kts
17-Nov-20 12:47 34.783406 -115.372485 271 34140ft 413kts
17-Nov-20 12:48 34.786383 -115.512682 271 34145ft 413kts
17-Nov-20 12:49 34.788319 -115.652275 271 34148ft 413kts
17-Nov-20 12:50 34.790064 -115.791883 271 33904ft 412kts
17-Nov-20 12:51 34.792879 -115.931390 270 30564ft 410kts
17-Nov-20 12:52 34.795242 -116.067292 270 27784ft 393kts
17-Nov-20 12:53 34.797360 -116.198327 269 25032ft 379kts
17-Nov-20 12:54 34.795849 -116.324338 265 23840ft 375kts
17-Nov-20 12:55 34.791080 -116.452099 265 23490ft 376kts
17-Nov-20 12:56 34.786034 -116.579245 262 23017ft 375kts
17-Nov-20 12:57 34.773192 -116.704066 261 22148ft 369kts
17-Nov-20 12:58 34.761153 -116.827622 261 21258ft 365kts
17-Nov-20 12:59 34.748938 -116.948987 260 20429ft 360kts
17-Nov-20 13:00 34.736567 -117.069460 260 19613ft 356kts
17-Nov-20 13:01 34.724879 -117.188216 260 18804ft 352kts
17-Nov-20 13:02 34.712564 -117.306152 260 17984ft 352kts
17-Nov-20 13:03 34.700102 -117.424304 260 17057ft 350kts
17-Nov-20 13:04 34.687833 -117.541879 259 16243ft 344kts
17-Nov-20 13:05 34.675315 -117.657331 259 15439ft 342kts
17-Nov-20 13:06 34.663159 -117.771853 259 14655ft 337kts
17-Nov-20 13:07 34.651248 -117.883312 259 13831ft 331kts
17-Nov-20 13:08 34.639203 -117.993437 258 12473ft 326kts
17-Nov-20 13:09 34.624201 -118.101103 251 11163ft 314kts
17-Nov-20 13:10 34.602295 -118.195994 251 9993ft 274kts
17-Nov-20 13:11 34.582451 -118.283946 252 8929ft 268kts
17-Nov-20 13:12 34.562997 -118.370680 252 8079ft 264kts
17-Nov-20 13:13 34.530471 -118.448365 215 7856ft 266kts
17-Nov-20 13:14 34.469191 -118.495438 212 7159ft 258kts
17-Nov-20 13:15 34.410092 -118.541414 211 6283ft 250kts
17-Nov-20 13:16 34.350370 -118.583388 187 5915ft 233kts
17-Nov-20 13:17 34.310779 -118.532315 107 4619ft 233kts
17-Nov-20 13:18 34.294838 -118.459070 105 3656ft 196kts
17-Nov-20 13:19 34.282493 -118.404780 117 2605ft 139kts
17-Nov-20 13:20 34.257883 -118.375069 148 1809ft 125kts
17-Nov-20 13:21 34.224722 -118.363789 165 1048ft 117kts
17-Nov-20 13:22 34.198863 -118.356728 166 729ft 28kts
17-Nov-20 13:23 34.197182 -118.353207 90 729ft 16kts
17-Nov-20 13:24 34.196792 -118.351944 180 729ft 0kts
17-Nov-20 13:25 34.196792 -118.351944 180 729ft 0kts
17-Nov-20 13:26 34.196792 -118.351944 180 729ft 0kts
17-Nov-20 13:27 34.196792 -118.351944 180 729ft 0kts
17-Nov-20 13:28 34.196792 -118.351944 180 729ft 0kts
17-Nov-20 13:29 34.196792 -118.351944 180 729ft 0kts
17-Nov-20 13:30 34.196792 -118.351944 180 729ft 0kts
17-Nov-20 13:31 34.196792 -118.351944 180 729ft 0kts
17-Nov-20 13:32 34.196792 -118.351944 180 729ft 0kts

Navigation Log

Ident Type
Flight plan parsing failed, navigation log unavailable